FOND DU LAC (CZFD)

METAR CZFD 050700Z AUTO 05002KT 9SM M21/M23 A2981
METAR CZFD 050600Z AUTO 06002KT 9SM M21/M23 A2982
METAR CZFD 050500Z AUTO 09002KT 9SM M20/M23 A2982
SPECI CZFD 050432Z AUTO 09002KT 9SM -SN M21/M23 A2982


Test Image


Test Image